sensor_id;sensor_type;location;lat;lon;timestamp;pressure;altitude;pressure_sealevel;temperature;humidity
29247;BME280;16272;48.188;9.964;2023-12-22T00:00:00;94462.56;;;6.22;86.36
29247;BME280;16272;48.188;9.964;2023-12-22T00:02:25;94464.16;;;6.15;86.18
29247;BME280;16272;48.188;9.964;2023-12-22T00:04:51;94476.34;;;6.07;86.71
29247;BME280;16272;48.188;9.964;2023-12-22T00:07:16;94477.34;;;6.15;86.69
29247;BME280;16272;48.188;9.964;2023-12-22T00:09:41;94482.16;;;5.93;87.78
29247;BME280;16272;48.188;9.964;2023-12-22T00:12:07;94481.91;;;6.04;88.10
29247;BME280;16272;48.188;9.964;2023-12-22T00:14:32;94468.47;;;5.89;88.71
29247;BME280;16272;48.188;9.964;2023-12-22T00:16:57;94473.84;;;6.06;88.28
29247;BME280;16272;48.188;9.964;2023-12-22T00:19:23;94480.28;;;6.03;88.83
29247;BME280;16272;48.188;9.964;2023-12-22T00:21:48;94489.91;;;5.95;89.27
29247;BME280;16272;48.188;9.964;2023-12-22T00:24:13;94497.22;;;6.01;89.10
29247;BME280;16272;48.188;9.964;2023-12-22T00:26:39;94515.81;;;5.99;89.66
29247;BME280;16272;48.188;9.964;2023-12-22T00:29:04;94523.13;;;5.87;89.09
29247;BME280;16272;48.188;9.964;2023-12-22T00:31:29;94541.63;;;5.96;89.26
29247;BME280;16272;48.188;9.964;2023-12-22T00:33:55;94537.56;;;5.83;90.32
29247;BME280;16272;48.188;9.964;2023-12-22T00:36:20;94529.22;;;5.88;90.30
29247;BME280;16272;48.188;9.964;2023-12-22T00:38:49;94519.94;;;5.76;90.52
29247;BME280;16272;48.188;9.964;2023-12-22T00:41:14;94502.16;;;5.78;90.12
29247;BME280;16272;48.188;9.964;2023-12-22T00:43:40;94509.91;;;5.79;90.63
29247;BME280;16272;48.188;9.964;2023-12-22T00:46:05;94512.19;;;5.74;90.18
29247;BME280;16272;48.188;9.964;2023-12-22T00:48:30;94526.88;;;5.85;89.95
29247;BME280;16272;48.188;9.964;2023-12-22T00:50:56;94543.00;;;6.00;89.24
29247;BME280;16272;48.188;9.964;2023-12-22T00:53:21;94537.22;;;5.96;88.78
29247;BME280;16272;48.188;9.964;2023-12-22T00:55:46;94541.22;;;5.82;88.90
29247;BME280;16272;48.188;9.964;2023-12-22T00:58:11;94555.09;;;6.11;86.88
29247;BME280;16272;48.188;9.964;2023-12-22T01:00:37;94557.59;;;6.12;86.12
29247;BME280;16272;48.188;9.964;2023-12-22T01:03:02;94552.81;;;6.16;85.60
29247;BME280;16272;48.188;9.964;2023-12-22T01:05:28;94549.69;;;5.94;87.25
29247;BME280;16272;48.188;9.964;2023-12-22T01:07:53;94553.16;;;5.95;86.44
29247;BME280;16272;48.188;9.964;2023-12-22T01:10:18;94548.25;;;6.00;85.07
29247;BME280;16272;48.188;9.964;2023-12-22T01:12:44;94540.38;;;5.82;85.18
29247;BME280;16272;48.188;9.964;2023-12-22T01:15:09;94549.16;;;6.09;83.60
29247;BME280;16272;48.188;9.964;2023-12-22T01:17:34;94530.97;;;5.97;84.16
29247;BME280;16272;48.188;9.964;2023-12-22T01:20:00;94538.56;;;6.00;83.21
29247;BME280;16272;48.188;9.964;2023-12-22T01:22:25;94517.34;;;6.02;83.60
29247;BME280;16272;48.188;9.964;2023-12-22T01:24:50;94511.75;;;5.87;82.90
29247;BME280;16272;48.188;9.964;2023-12-22T01:27:15;94508.78;;;6.08;81.32
29247;BME280;16272;48.188;9.964;2023-12-22T01:29:41;94494.75;;;5.99;81.66
29247;BME280;16272;48.188;9.964;2023-12-22T01:32:06;94529.88;;;5.90;80.78
29247;BME280;16272;48.188;9.964;2023-12-22T01:34:31;94524.28;;;6.11;79.85
29247;BME280;16272;48.188;9.964;2023-12-22T01:36:57;94529.97;;;5.98;79.98
29247;BME280;16272;48.188;9.964;2023-12-22T01:39:22;94549.34;;;5.89;80.36
29247;BME280;16272;48.188;9.964;2023-12-22T01:41:47;94550.09;;;5.99;80.05
29247;BME280;16272;48.188;9.964;2023-12-22T01:44:13;94562.66;;;6.05;79.85
29247;BME280;16272;48.188;9.964;2023-12-22T01:46:38;94550.97;;;5.90;80.25
29247;BME280;16272;48.188;9.964;2023-12-22T01:49:05;94560.84;;;5.88;80.28
29247;BME280;16272;48.188;9.964;2023-12-22T01:51:32;94570.72;;;6.04;80.43
29247;BME280;16272;48.188;9.964;2023-12-22T01:53:58;94562.88;;;5.94;80.44
29247;BME280;16272;48.188;9.964;2023-12-22T01:56:23;94564.28;;;6.06;79.67
29247;BME280;16272;48.188;9.964;2023-12-22T01:58:51;94564.13;;;5.90;79.97
29247;BME280;16272;48.188;9.964;2023-12-22T02:01:19;94565.28;;;5.87;79.57
29247;BME280;16272;48.188;9.964;2023-12-22T02:03:48;94571.16;;;5.81;79.81
29247;BME280;16272;48.188;9.964;2023-12-22T02:06:14;94577.88;;;5.76;80.41
29247;BME280;16272;48.188;9.964;2023-12-22T02:08:41;94575.84;;;5.69;80.71
29247;BME280;16272;48.188;9.964;2023-12-22T02:11:09;94570.22;;;5.64;81.19
29247;BME280;16272;48.188;9.964;2023-12-22T02:13:34;94586.25;;;5.71;81.81
29247;BME280;16272;48.188;9.964;2023-12-22T02:16:04;94584.50;;;5.44;82.69
29247;BME280;16272;48.188;9.964;2023-12-22T02:18:35;94593.22;;;5.62;83.07
29247;BME280;16272;48.188;9.964;2023-12-22T02:21:03;94581.34;;;5.58;83.77
29247;BME280;16272;48.188;9.964;2023-12-22T02:23:28;94582.38;;;5.65;84.38
29247;BME280;16272;48.188;9.964;2023-12-22T02:26:08;94599.25;;;5.73;85.19
29247;BME280;16272;48.188;9.964;2023-12-22T02:28:35;94597.88;;;5.68;84.89
29247;BME280;16272;48.188;9.964;2023-12-22T02:31:22;94608.50;;;5.59;85.43
29247;BME280;16272;48.188;9.964;2023-12-22T02:33:52;94619.25;;;5.65;85.84
29247;BME280;16272;48.188;9.964;2023-12-22T02:36:19;94627.84;;;5.31;87.48
29247;BME280;16272;48.188;9.964;2023-12-22T02:38:46;94648.63;;;4.69;88.14
29247;BME280;16272;48.188;9.964;2023-12-22T02:41:11;94656.50;;;3.54;90.48
29247;BME280;16272;48.188;9.964;2023-12-22T02:43:37;94640.03;;;3.32;90.91
29247;BME280;16272;48.188;9.964;2023-12-22T02:46:03;94644.88;;;3.37;91.22
29247;BME280;16272;48.188;9.964;2023-12-22T02:48:28;94602.19;;;3.54;88.94
29247;BME280;16272;48.188;9.964;2023-12-22T02:50:53;94607.03;;;3.59;87.60
29247;BME280;16272;48.188;9.964;2023-12-22T02:53:18;94598.72;;;4.02;84.61
29247;BME280;16272;48.188;9.964;2023-12-22T02:55:44;94583.72;;;4.22;83.19
29247;BME280;16272;48.188;9.964;2023-12-22T02:58:09;94585.41;;;4.23;83.30
29247;BME280;16272;48.188;9.964;2023-12-22T03:00:34;94580.53;;;4.29;84.44
29247;BME280;16272;48.188;9.964;2023-12-22T03:03:00;94587.03;;;4.24;84.54
29247;BME280;16272;48.188;9.964;2023-12-22T03:05:25;94605.16;;;4.28;85.00
29247;BME280;16272;48.188;9.964;2023-12-22T03:07:50;94592.59;;;4.21;85.29
29247;BME280;16272;48.188;9.964;2023-12-22T03:10:15;94603.63;;;4.35;85.58
29247;BME280;16272;48.188;9.964;2023-12-22T03:12:41;94609.16;;;4.32;86.39
29247;BME280;16272;48.188;9.964;2023-12-22T03:15:06;94599.44;;;4.42;86.11
29247;BME280;16272;48.188;9.964;2023-12-22T03:17:32;94601.03;;;4.63;86.31
29247;BME280;16272;48.188;9.964;2023-12-22T03:19:57;94580.00;;;4.63;85.92
29247;BME280;16272;48.188;9.964;2023-12-22T03:22:22;94579.72;;;4.66;86.08
29247;BME280;16272;48.188;9.964;2023-12-22T03:24:48;94584.09;;;4.75;85.39
29247;BME280;16272;48.188;9.964;2023-12-22T03:27:13;94601.16;;;4.99;84.23
29247;BME280;16272;48.188;9.964;2023-12-22T03:29:42;94597.22;;;5.03;84.13
29247;BME280;16272;48.188;9.964;2023-12-22T03:32:07;94585.66;;;4.95;83.76
29247;BME280;16272;48.188;9.964;2023-12-22T03:34:32;94587.28;;;4.96;83.20
29247;BME280;16272;48.188;9.964;2023-12-22T03:36:58;94592.06;;;5.11;82.92
29247;BME280;16272;48.188;9.964;2023-12-22T03:39:23;94622.06;;;5.00;82.76
29247;BME280;16272;48.188;9.964;2023-12-22T03:41:48;94643.75;;;5.12;82.61
29247;BME280;16272;48.188;9.964;2023-12-22T03:44:14;94645.19;;;5.24;81.98
29247;BME280;16272;48.188;9.964;2023-12-22T03:46:39;94631.09;;;5.15;82.14
29247;BME280;16272;48.188;9.964;2023-12-22T03:49:04;94601.81;;;5.28;81.73
29247;BME280;16272;48.188;9.964;2023-12-22T03:51:30;94569.97;;;5.04;82.74
29247;BME280;16272;48.188;9.964;2023-12-22T03:53:55;94574.94;;;5.07;82.35
29247;BME280;16272;48.188;9.964;2023-12-22T03:56:20;94596.09;;;4.87;82.81
29247;BME280;16272;48.188;9.964;2023-12-22T03:58:45;94596.75;;;4.89;82.68
29247;BME280;16272;48.188;9.964;2023-12-22T04:01:14;94595.38;;;4.85;83.38
29247;BME280;16272;48.188;9.964;2023-12-22T04:03:39;94592.84;;;4.93;83.09
29247;BME280;16272;48.188;9.964;2023-12-22T04:06:05;94597.00;;;4.68;83.30
29247;BME280;16272;48.188;9.964;2023-12-22T04:08:30;94601.00;;;4.72;83.58
29247;BME280;16272;48.188;9.964;2023-12-22T04:10:55;94604.31;;;4.74;82.73
29247;BME280;16272;48.188;9.964;2023-12-22T04:13:21;94611.91;;;4.77;82.00
29247;BME280;16272;48.188;9.964;2023-12-22T04:15:46;94613.31;;;4.72;81.96
29247;BME280;16272;48.188;9.964;2023-12-22T04:18:11;94611.38;;;4.74;81.05
29247;BME280;16272;48.188;9.964;2023-12-22T04:20:37;94630.66;;;4.92;81.05
29247;BME280;16272;48.188;9.964;2023-12-22T04:23:02;94630.03;;;4.81;81.19
29247;BME280;16272;48.188;9.964;2023-12-22T04:25:27;94635.72;;;4.76;80.41
29247;BME280;16272;48.188;9.964;2023-12-22T04:27:53;94641.47;;;4.89;81.32
29247;BME280;16272;48.188;9.964;2023-12-22T04:30:18;94650.19;;;4.90;81.88
29247;BME280;16272;48.188;9.964;2023-12-22T04:32:43;94640.81;;;4.87;81.61
29247;BME280;16272;48.188;9.964;2023-12-22T04:35:09;94632.22;;;4.85;81.95
29247;BME280;16272;48.188;9.964;2023-12-22T04:37:34;94626.38;;;4.91;82.03
29247;BME280;16272;48.188;9.964;2023-12-22T04:39:59;94620.63;;;4.78;82.40
29247;BME280;16272;48.188;9.964;2023-12-22T04:42:25;94628.31;;;4.89;81.87
29247;BME280;16272;48.188;9.964;2023-12-22T04:44:51;94634.06;;;5.03;81.87
29247;BME280;16272;48.188;9.964;2023-12-22T04:47:16;94619.16;;;4.93;81.73
29247;BME280;16272;48.188;9.964;2023-12-22T04:49:41;94606.22;;;4.82;82.21
29247;BME280;16272;48.188;9.964;2023-12-22T04:52:07;94599.38;;;4.89;81.84
29247;BME280;16272;48.188;9.964;2023-12-22T04:54:32;94591.97;;;5.03;82.31
29247;BME280;16272;48.188;9.964;2023-12-22T04:56:57;94613.22;;;4.91;81.86
29247;BME280;16272;48.188;9.964;2023-12-22T04:59:22;94634.66;;;4.96;82.39
29247;BME280;16272;48.188;9.964;2023-12-22T05:01:48;94633.69;;;4.97;82.36
29247;BME280;16272;48.188;9.964;2023-12-22T05:04:13;94648.00;;;5.13;82.14
29247;BME280;16272;48.188;9.964;2023-12-22T05:06:38;94650.94;;;5.10;82.51
29247;BME280;16272;48.188;9.964;2023-12-22T05:09:04;94670.06;;;5.12;82.14
29247;BME280;16272;48.188;9.964;2023-12-22T05:11:29;94654.34;;;4.92;83.17
29247;BME280;16272;48.188;9.964;2023-12-22T05:13:54;94672.00;;;4.82;83.40
29247;BME280;16272;48.188;9.964;2023-12-22T05:16:20;94668.44;;;5.01;83.48
29247;BME280;16272;48.188;9.964;2023-12-22T05:18:45;94665.06;;;5.09;83.93
29247;BME280;16272;48.188;9.964;2023-12-22T05:21:14;94673.72;;;4.91;84.13
29247;BME280;16272;48.188;9.964;2023-12-22T05:23:39;94675.69;;;4.89;83.28
29247;BME280;16272;48.188;9.964;2023-12-22T05:26:05;94679.19;;;5.08;83.91
29247;BME280;16272;48.188;9.964;2023-12-22T05:28:30;94683.97;;;4.94;84.30
29247;BME280;16272;48.188;9.964;2023-12-22T05:30:55;94676.47;;;5.00;84.30
29247;BME280;16272;48.188;9.964;2023-12-22T05:33:21;94691.28;;;5.01;84.31
29247;BME280;16272;48.188;9.964;2023-12-22T05:35:46;94696.84;;;4.97;83.79
29247;BME280;16272;48.188;9.964;2023-12-22T05:38:11;94684.47;;;5.08;83.35
29247;BME280;16272;48.188;9.964;2023-12-22T05:40:36;94701.59;;;4.84;84.11
29247;BME280;16272;48.188;9.964;2023-12-22T05:43:02;94718.84;;;4.96;83.89
29247;BME280;16272;48.188;9.964;2023-12-22T05:45:27;94708.63;;;4.93;83.53
29247;BME280;16272;48.188;9.964;2023-12-22T05:47:52;94702.66;;;4.91;83.82
29247;BME280;16272;48.188;9.964;2023-12-22T05:50:17;94696.13;;;5.05;83.44
29247;BME280;16272;48.188;9.964;2023-12-22T05:52:43;94694.59;;;5.03;82.50
29247;BME280;16272;48.188;9.964;2023-12-22T05:55:11;94689.09;;;4.96;82.95
29247;BME280;16272;48.188;9.964;2023-12-22T05:57:36;94690.00;;;5.05;82.25
29247;BME280;16272;48.188;9.964;2023-12-22T06:00:03;94689.53;;;5.19;81.96
29247;BME280;16272;48.188;9.964;2023-12-22T06:02:32;94708.19;;;4.98;81.68
29247;BME280;16272;48.188;9.964;2023-12-22T06:04:57;94707.81;;;4.83;82.41
29247;BME280;16272;48.188;9.964;2023-12-22T06:07:22;94718.28;;;5.03;81.81
29247;BME280;16272;48.188;9.964;2023-12-22T06:09:48;94707.25;;;4.89;81.31
29247;BME280;16272;48.188;9.964;2023-12-22T06:12:14;94684.47;;;5.08;81.20
29247;BME280;16272;48.188;9.964;2023-12-22T06:14:39;94707.00;;;5.20;80.90
29247;BME280;16272;48.188;9.964;2023-12-22T06:17:04;94685.31;;;5.08;81.14
29247;BME280;16272;48.188;9.964;2023-12-22T06:19:30;94670.91;;;5.30;79.45
29247;BME280;16272;48.188;9.964;2023-12-22T06:21:56;94666.66;;;5.20;79.32
29247;BME280;16272;48.188;9.964;2023-12-22T06:24:22;94676.56;;;5.36;78.75
29247;BME280;16272;48.188;9.964;2023-12-22T06:26:47;94696.72;;;5.27;78.44
29247;BME280;16272;48.188;9.964;2023-12-22T06:29:13;94682.75;;;5.26;78.49
29247;BME280;16272;48.188;9.964;2023-12-22T06:31:38;94689.81;;;5.44;78.23
29247;BME280;16272;48.188;9.964;2023-12-22T06:34:03;94701.25;;;5.34;77.70
29247;BME280;16272;48.188;9.964;2023-12-22T06:36:30;94686.81;;;5.39;78.12
29247;BME280;16272;48.188;9.964;2023-12-22T06:38:55;94709.84;;;5.37;77.46
29247;BME280;16272;48.188;9.964;2023-12-22T06:41:25;94711.47;;;5.38;77.51
29247;BME280;16272;48.188;9.964;2023-12-22T06:43:51;94713.63;;;5.52;77.16
29247;BME280;16272;48.188;9.964;2023-12-22T06:46:17;94722.72;;;5.40;76.94
29247;BME280;16272;48.188;9.964;2023-12-22T06:48:43;94736.94;;;5.47;76.39
29247;BME280;16272;48.188;9.964;2023-12-22T06:51:24;94759.38;;;5.51;76.93
29247;BME280;16272;48.188;9.964;2023-12-22T06:53:50;94762.69;;;5.53;76.62
29247;BME280;16272;48.188;9.964;2023-12-22T06:56:19;94760.22;;;5.51;76.58
29247;BME280;16272;48.188;9.964;2023-12-22T06:58:46;94767.28;;;5.51;77.22
29247;BME280;16272;48.188;9.964;2023-12-22T07:01:18;94772.25;;;5.54;78.13
29247;BME280;16272;48.188;9.964;2023-12-22T07:03:43;94784.53;;;5.36;78.50
29247;BME280;16272;48.188;9.964;2023-12-22T07:06:09;94777.72;;;5.43;78.12
29247;BME280;16272;48.188;9.964;2023-12-22T07:08:34;94782.09;;;5.52;78.57
29247;BME280;16272;48.188;9.964;2023-12-22T07:10:59;94796.53;;;5.48;78.97
29247;BME280;16272;48.188;9.964;2023-12-22T07:13:24;94781.03;;;5.45;77.61
29247;BME280;16272;48.188;9.964;2023-12-22T07:15:50;94790.13;;;5.50;78.59
29247;BME280;16272;48.188;9.964;2023-12-22T07:18:15;94789.78;;;5.36;78.90
29247;BME280;16272;48.188;9.964;2023-12-22T07:20:40;94811.53;;;5.38;79.44
29247;BME280;16272;48.188;9.964;2023-12-22T07:23:05;94809.88;;;5.37;79.31
29247;BME280;16272;48.188;9.964;2023-12-22T07:25:36;94816.34;;;5.52;78.48
29247;BME280;16272;48.188;9.964;2023-12-22T07:28:01;94812.09;;;5.41;78.43
29247;BME280;16272;48.188;9.964;2023-12-22T07:30:27;94825.66;;;5.46;77.94
29247;BME280;16272;48.188;9.964;2023-12-22T07:32:52;94821.16;;;5.57;78.18
29247;BME280;16272;48.188;9.964;2023-12-22T07:35:18;94822.59;;;5.51;78.10
29247;BME280;16272;48.188;9.964;2023-12-22T07:37:43;94821.88;;;5.49;78.73
29247;BME280;16272;48.188;9.964;2023-12-22T07:40:09;94807.56;;;5.61;78.31
29247;BME280;16272;48.188;9.964;2023-12-22T07:42:34;94804.84;;;5.53;77.37
29247;BME280;16272;48.188;9.964;2023-12-22T07:44:59;94820.09;;;5.49;77.35
29247;BME280;16272;48.188;9.964;2023-12-22T07:47:25;94830.06;;;5.46;78.11
29247;BME280;16272;48.188;9.964;2023-12-22T07:49:51;94826.88;;;5.52;77.73
29247;BME280;16272;48.188;9.964;2023-12-22T07:52:16;94829.38;;;5.44;78.33
29247;BME280;16272;48.188;9.964;2023-12-22T07:54:42;94826.19;;;5.50;78.04
29247;BME280;16272;48.188;9.964;2023-12-22T07:57:07;94823.28;;;5.53;77.71
29247;BME280;16272;48.188;9.964;2023-12-22T07:59:32;94826.19;;;5.50;79.03
29247;BME280;16272;48.188;9.964;2023-12-22T08:01:58;94834.66;;;5.44;79.87
29247;BME280;16272;48.188;9.964;2023-12-22T08:04:23;94847.25;;;5.50;79.60
29247;BME280;16272;48.188;9.964;2023-12-22T08:06:48;94835.69;;;5.33;80.52
29247;BME280;16272;48.188;9.964;2023-12-22T08:09:14;94837.44;;;5.42;80.69
29247;BME280;16272;48.188;9.964;2023-12-22T08:11:39;94835.09;;;5.39;80.03
29247;BME280;16272;48.188;9.964;2023-12-22T08:14:04;94847.53;;;5.47;80.04
29247;BME280;16272;48.188;9.964;2023-12-22T08:16:30;94841.38;;;5.28;81.10
29247;BME280;16272;48.188;9.964;2023-12-22T08:18:55;94847.97;;;5.42;79.98
29247;BME280;16272;48.188;9.964;2023-12-22T08:21:20;94838.41;;;5.51;79.63
29247;BME280;16272;48.188;9.964;2023-12-22T08:23:45;94829.69;;;5.41;80.07
29247;BME280;16272;48.188;9.964;2023-12-22T08:26:11;94830.41;;;5.33;81.63
29247;BME280;16272;48.188;9.964;2023-12-22T08:28:37;94834.81;;;5.32;81.67
29247;BME280;16272;48.188;9.964;2023-12-22T08:31:03;94830.16;;;5.26;81.90
29247;BME280;16272;48.188;9.964;2023-12-22T08:33:28;94837.56;;;5.41;81.77
29247;BME280;16272;48.188;9.964;2023-12-22T08:35:53;94835.44;;;5.26;82.36
29247;BME280;16272;48.188;9.964;2023-12-22T08:38:18;94841.78;;;5.33;81.89
29247;BME280;16272;48.188;9.964;2023-12-22T08:40:44;94847.56;;;5.37;82.31
29247;BME280;16272;48.188;9.964;2023-12-22T08:43:10;94833.44;;;5.38;81.91
29247;BME280;16272;48.188;9.964;2023-12-22T08:45:35;94832.28;;;5.50;81.46
29247;BME280;16272;48.188;9.964;2023-12-22T08:48:00;94821.25;;;5.37;81.78
29247;BME280;16272;48.188;9.964;2023-12-22T08:50:27;94827.38;;;5.65;81.28
29247;BME280;16272;48.188;9.964;2023-12-22T08:52:52;94835.56;;;5.62;81.28
29247;BME280;16272;48.188;9.964;2023-12-22T08:55:18;94837.41;;;5.52;81.38
29247;BME280;16272;48.188;9.964;2023-12-22T08:57:43;94833.81;;;5.53;81.35
29247;BME280;16272;48.188;9.964;2023-12-22T09:00:09;94845.31;;;5.52;81.64
29247;BME280;16272;48.188;9.964;2023-12-22T09:02:34;94834.59;;;5.63;80.86
29247;BME280;16272;48.188;9.964;2023-12-22T09:05:00;94836.41;;;5.63;81.42
29247;BME280;16272;48.188;9.964;2023-12-22T09:07:25;94839.75;;;5.55;81.91
29247;BME280;16272;48.188;9.964;2023-12-22T09:09:50;94841.09;;;5.69;81.69
29247;BME280;16272;48.188;9.964;2023-12-22T09:12:16;94823.81;;;5.57;80.99
29247;BME280;16272;48.188;9.964;2023-12-22T09:14:41;94840.28;;;5.59;80.98
29247;BME280;16272;48.188;9.964;2023-12-22T09:17:06;94848.81;;;5.70;80.93
29247;BME280;16272;48.188;9.964;2023-12-22T09:19:32;94852.66;;;5.86;80.62
29247;BME280;16272;48.188;9.964;2023-12-22T09:21:58;94863.78;;;5.80;79.69
29247;BME280;16272;48.188;9.964;2023-12-22T09:24:24;94853.09;;;5.81;79.65
29247;BME280;16272;48.188;9.964;2023-12-22T09:26:49;94859.19;;;5.82;80.06
29247;BME280;16272;48.188;9.964;2023-12-22T09:29:16;94851.75;;;5.77;80.21
29247;BME280;16272;48.188;9.964;2023-12-22T09:31:42;94844.84;;;5.94;80.16
29247;BME280;16272;48.188;9.964;2023-12-22T09:34:07;94838.50;;;5.87;80.76
29247;BME280;16272;48.188;9.964;2023-12-22T09:36:32;94855.22;;;5.68;80.52
29247;BME280;16272;48.188;9.964;2023-12-22T09:38:57;94855.47;;;5.75;80.89
29247;BME280;16272;48.188;9.964;2023-12-22T09:41:24;94854.69;;;5.64;81.04
29247;BME280;16272;48.188;9.964;2023-12-22T09:43:49;94834.22;;;5.86;80.50
29247;BME280;16272;48.188;9.964;2023-12-22T09:46:17;94842.94;;;5.96;80.85
29247;BME280;16272;48.188;9.964;2023-12-22T09:48:43;94848.25;;;5.77;81.57
29247;BME280;16272;48.188;9.964;2023-12-22T09:51:10;94878.91;;;5.78;81.30
29247;BME280;16272;48.188;9.964;2023-12-22T09:53:38;94871.69;;;5.80;81.15
29247;BME280;16272;48.188;9.964;2023-12-22T09:56:04;94871.44;;;5.73;80.87
29247;BME280;16272;48.188;9.964;2023-12-22T09:58:29;94877.38;;;5.75;80.64
29247;BME280;16272;48.188;9.964;2023-12-22T10:00:56;94879.31;;;5.83;80.49
29247;BME280;16272;48.188;9.964;2023-12-22T10:03:23;94889.97;;;5.81;80.92
29247;BME280;16272;48.188;9.964;2023-12-22T10:05:49;94873.34;;;5.81;80.41
29247;BME280;16272;48.188;9.964;2023-12-22T10:08:15;94873.47;;;5.89;79.79
29247;BME280;16272;48.188;9.964;2023-12-22T10:10:42;94884.19;;;5.78;80.89
29247;BME280;16272;48.188;9.964;2023-12-22T10:13:10;94886.00;;;5.77;80.85
29247;BME280;16272;48.188;9.964;2023-12-22T10:15:40;94869.28;;;5.86;80.53
29247;BME280;16272;48.188;9.964;2023-12-22T10:18:09;94860.84;;;5.83;79.40
29247;BME280;16272;48.188;9.964;2023-12-22T10:20:35;94865.56;;;5.89;79.80
29247;BME280;16272;48.188;9.964;2023-12-22T10:23:00;94858.31;;;5.91;80.51
29247;BME280;16272;48.188;9.964;2023-12-22T10:25:29;94862.63;;;5.92;79.92
29247;BME280;16272;48.188;9.964;2023-12-22T10:27:55;94858.44;;;5.99;79.87
29247;BME280;16272;48.188;9.964;2023-12-22T10:30:21;94864.81;;;5.97;79.54
29247;BME280;16272;48.188;9.964;2023-12-22T10:32:47;94856.34;;;6.03;80.74
29247;BME280;16272;48.188;9.964;2023-12-22T10:35:14;94860.22;;;6.09;80.02
29247;BME280;16272;48.188;9.964;2023-12-22T10:37:39;94863.34;;;5.84;80.53
29247;BME280;16272;48.188;9.964;2023-12-22T10:40:05;94863.66;;;6.09;79.89
29247;BME280;16272;48.188;9.964;2023-12-22T10:42:32;94852.66;;;5.86;80.08
29247;BME280;16272;48.188;9.964;2023-12-22T10:44:57;94844.03;;;5.94;79.82
29247;BME280;16272;48.188;9.964;2023-12-22T10:47:22;94842.41;;;5.83;79.97
29247;BME280;16272;48.188;9.964;2023-12-22T10:49:48;94848.44;;;5.93;80.14
29247;BME280;16272;48.188;9.964;2023-12-22T10:52:17;94840.97;;;5.98;80.23
29247;BME280;16272;48.188;9.964;2023-12-22T10:54:43;94840.63;;;6.11;79.55
29247;BME280;16272;48.188;9.964;2023-12-22T10:57:10;94833.47;;;6.03;80.17
29247;BME280;16272;48.188;9.964;2023-12-22T10:59:40;94827.13;;;5.96;79.84
29247;BME280;16272;48.188;9.964;2023-12-22T11:02:15;94836.50;;;6.09;79.47
29247;BME280;16272;48.188;9.964;2023-12-22T11:05:04;94835.19;;;6.13;79.82
29247;BME280;16272;48.188;9.964;2023-12-22T11:07:35;94830.16;;;6.19;79.37
29247;BME280;16272;48.188;9.964;2023-12-22T11:10:07;94823.53;;;6.15;78.75
29247;BME280;16272;48.188;9.964;2023-12-22T11:12:37;94822.09;;;6.21;79.70
29247;BME280;16272;48.188;9.964;2023-12-22T11:15:04;94822.53;;;6.16;79.82
29247;BME280;16272;48.188;9.964;2023-12-22T11:17:33;94831.44;;;6.15;80.29
29247;BME280;16272;48.188;9.964;2023-12-22T11:19:59;94826.41;;;6.22;80.31
29247;BME280;16272;48.188;9.964;2023-12-22T11:22:25;94820.06;;;6.15;80.44
29247;BME280;16272;48.188;9.964;2023-12-22T11:24:51;94818.41;;;6.14;80.79
29247;BME280;16272;48.188;9.964;2023-12-22T11:27:17;94811.53;;;6.03;81.33
29247;BME280;16272;48.188;9.964;2023-12-22T11:29:46;94812.84;;;6.17;81.03
29247;BME280;16272;48.188;9.964;2023-12-22T11:32:13;94808.03;;;6.12;80.61
29247;BME280;16272;48.188;9.964;2023-12-22T11:34:42;94807.41;;;6.00;81.84
29247;BME280;16272;48.188;9.964;2023-12-22T11:37:09;94800.63;;;5.98;81.61
29247;BME280;16272;48.188;9.964;2023-12-22T11:39:36;94794.69;;;5.86;81.13
29247;BME280;16272;48.188;9.964;2023-12-22T11:42:02;94794.09;;;5.92;81.69
29247;BME280;16272;48.188;9.964;2023-12-22T11:44:29;94793.53;;;5.98;82.45
29247;BME280;16272;48.188;9.964;2023-12-22T11:47:05;94786.41;;;6.09;81.56
29247;BME280;16272;48.188;9.964;2023-12-22T11:49:34;94778.19;;;6.12;81.04
29247;BME280;16272;48.188;9.964;2023-12-22T11:52:15;94775.78;;;6.00;81.84
29247;BME280;16272;48.188;9.964;2023-12-22T11:54:44;94772.44;;;5.98;82.55
29247;BME280;16272;48.188;9.964;2023-12-22T12:00:42;94762.31;;;5.76;83.46
29247;BME280;16272;48.188;9.964;2023-12-22T12:02:42;94770.34;;;6.02;82.98
29247;BME280;16272;48.188;9.964;2023-12-22T12:05:09;94756.22;;;5.93;82.97
29247;BME280;16272;48.188;9.964;2023-12-22T12:10:10;94744.84;;;5.93;82.92
29247;BME280;16272;48.188;9.964;2023-12-22T12:12:36;94739.16;;;5.97;82.76
29247;BME280;16272;48.188;9.964;2023-12-22T12:15:10;94746.97;;;5.89;83.11
29247;BME280;16272;48.188;9.964;2023-12-22T12:17:38;94739.03;;;6.17;82.05
29247;BME280;16272;48.188;9.964;2023-12-22T12:20:06;94725.69;;;6.18;82.40
29247;BME280;16272;48.188;9.964;2023-12-22T12:22:32;94729.75;;;6.13;81.39
29247;BME280;16272;48.188;9.964;2023-12-22T12:24:58;94728.03;;;6.03;82.13
29247;BME280;16272;48.188;9.964;2023-12-22T12:27:23;94721.69;;;5.96;82.29
29247;BME280;16272;48.188;9.964;2023-12-22T12:29:49;94724.31;;;5.96;82.65
29247;BME280;16272;48.188;9.964;2023-12-22T12:32:15;94727.72;;;6.06;82.29
29247;BME280;16272;48.188;9.964;2023-12-22T12:34:44;94706.41;;;6.00;83.03
29247;BME280;16272;48.188;9.964;2023-12-22T12:37:11;94706.41;;;6.18;82.45
29247;BME280;16272;48.188;9.964;2023-12-22T12:39:39;94695.56;;;6.03;81.94
29247;BME280;16272;48.188;9.964;2023-12-22T12:42:07;94682.81;;;5.98;82.91
29247;BME280;16272;48.188;9.964;2023-12-22T12:44:33;94676.72;;;6.16;82.16
29247;BME280;16272;48.188;9.964;2023-12-22T12:47:11;94665.91;;;6.01;83.80
29247;BME280;16272;48.188;9.964;2023-12-22T12:49:36;94654.97;;;5.78;84.25
29247;BME280;16272;48.188;9.964;2023-12-22T12:52:01;94656.59;;;6.15;83.27
29247;BME280;16272;48.188;9.964;2023-12-22T12:54:27;94665.81;;;6.11;83.66
29247;BME280;16272;48.188;9.964;2023-12-22T12:56:53;94665.59;;;6.22;83.77
29247;BME280;16272;48.188;9.964;2023-12-22T12:59:18;94657.88;;;5.93;83.84
29247;BME280;16272;48.188;9.964;2023-12-22T13:01:45;94639.47;;;6.11;84.25
29247;BME280;16272;48.188;9.964;2023-12-22T13:04:11;94650.97;;;6.10;84.21
29247;BME280;16272;48.188;9.964;2023-12-22T13:06:45;94643.91;;;6.10;83.25
29247;BME280;16272;48.188;9.964;2023-12-22T13:09:11;94653.22;;;6.22;83.51